createdAt,value
2019-04-27T00:01:16.213Z,30.77
2019-04-27T00:04:16.199Z,32.60
2019-04-27T00:06:46.376Z,34.90
2019-04-27T00:09:34.052Z,31.43
2019-04-27T00:12:05.740Z,30.30
2019-04-27T00:14:34.643Z,35.13
2019-04-27T00:17:14.725Z,34.53
2019-04-27T00:19:55.686Z,32.60
2019-04-27T00:22:27.796Z,33.13
2019-04-27T00:24:55.222Z,33.77
2019-04-27T00:27:23.462Z,32.40
2019-04-27T00:29:51.236Z,29.40
2019-04-27T00:32:18.906Z,33.70
2019-04-27T00:34:46.811Z,31.43
2019-04-27T00:37:54.061Z,30.00
2019-04-27T00:40:34.577Z,33.07
2019-04-27T00:43:02.981Z,27.40
2019-04-27T00:45:31.043Z,32.17
2019-04-27T00:47:59.861Z,32.27
2019-04-27T00:50:27.744Z,30.53
2019-04-27T00:52:55.238Z,32.63
2019-04-27T00:55:23.470Z,32.87
2019-04-27T00:58:23.101Z,33.77
2019-04-27T01:00:59.680Z,31.37
2019-04-27T01:03:44.577Z,34.23
2019-04-27T01:06:13.087Z,30.80
2019-04-27T01:08:42.763Z,33.37
2019-04-27T01:11:13.985Z,34.57
2019-04-27T01:13:43.449Z,32.27
2019-04-27T01:16:13.217Z,31.90
2019-04-27T01:18:41.453Z,29.50
2019-04-27T01:21:09.287Z,31.90
2019-04-27T01:23:38.515Z,31.47
2019-04-27T01:26:21.515Z,33.80
2019-04-27T01:28:59.088Z,35.40
2019-04-27T01:31:26.693Z,33.17
2019-04-27T01:33:55.170Z,33.67
2019-04-27T01:36:22.859Z,34.97
2019-04-27T01:38:50.308Z,36.53
2019-04-27T01:41:19.143Z,33.47
2019-04-27T01:43:46.945Z,35.27
2019-04-27T01:46:14.710Z,35.67
2019-04-27T01:48:42.366Z,34.97
2019-04-27T01:51:09.907Z,33.90
2019-04-27T01:53:38.925Z,33.00
2019-04-27T01:56:06.801Z,33.40
2019-04-27T01:58:34.720Z,33.53
2019-04-27T02:01:22.349Z,34.60
2019-04-27T02:04:12.267Z,34.57
2019-04-27T02:06:39.786Z,33.57
2019-04-27T02:09:11.703Z,35.43
2019-04-27T02:11:40.075Z,33.33
2019-04-27T02:14:09.404Z,32.60
2019-04-27T02:19:19.378Z,34.03
2019-04-27T02:21:47.104Z,35.00
2019-04-27T02:24:14.592Z,34.93
2019-04-27T02:26:42.078Z,31.90
2019-04-27T02:29:29.188Z,33.77
2019-04-27T02:32:03.571Z,29.87
2019-04-27T02:34:34.219Z,38.30
2019-04-27T02:37:04.899Z,32.17
2019-04-27T02:39:32.442Z,30.67
2019-04-27T02:42:00.410Z,35.20
2019-04-27T02:44:34.223Z,33.17
2019-04-27T02:47:02.320Z,34.77
2019-04-27T02:49:30.560Z,35.20
2019-04-27T02:52:19.840Z,34.33
2019-04-27T02:54:47.226Z,35.63
2019-04-27T02:57:14.790Z,34.73
2019-04-27T02:59:42.302Z,34.17
2019-04-27T03:02:19.440Z,35.40
2019-04-27T03:04:46.276Z,35.00
2019-04-27T03:07:13.888Z,33.50
2019-04-27T03:09:41.333Z,36.10
2019-04-27T03:12:10.257Z,35.33
2019-04-27T03:14:51.519Z,35.90
2019-04-27T03:17:39.579Z,32.63
2019-04-27T03:20:20.197Z,30.83
2019-04-27T03:22:52.046Z,34.07
2019-04-27T03:25:40.075Z,34.20
2019-04-27T03:28:12.588Z,34.67
2019-04-27T03:30:42.365Z,35.93
2019-04-27T03:33:11.764Z,38.90
2019-04-27T03:35:42.935Z,35.30
2019-04-27T03:38:12.110Z,34.83
2019-04-27T03:40:40.354Z,40.57
2019-04-27T03:43:19.959Z,36.83
2019-04-27T03:45:49.715Z,35.90
2019-04-27T03:48:17.081Z,38.70
2019-04-27T03:50:52.585Z,34.10
2019-04-27T03:53:36.260Z,40.47
2019-04-27T03:56:23.706Z,36.70
2019-04-27T03:58:54.568Z,37.23
2019-04-27T04:01:22.031Z,42.20
2019-04-27T04:03:50.253Z,37.13
2019-04-27T04:06:19.656Z,39.63
2019-04-27T04:08:49.873Z,42.93
2019-04-27T04:11:22.502Z,38.60
2019-04-27T04:13:57.105Z,37.50
2019-04-27T04:16:32.961Z,39.30
2019-04-27T04:19:03.039Z,43.10
2019-04-27T04:21:30.586Z,41.47
2019-04-27T04:24:00.534Z,44.77
2019-04-27T04:26:32.975Z,42.70
2019-04-27T04:29:00.062Z,39.63
2019-04-27T04:31:32.519Z,38.70
2019-04-27T04:33:59.732Z,40.80
2019-04-27T04:36:29.787Z,36.20
2019-04-27T04:38:56.969Z,41.97
2019-04-27T04:41:40.620Z,42.40
2019-04-27T04:44:14.553Z,43.73
2019-04-27T04:47:01.677Z,35.07
2019-04-27T04:49:29.758Z,42.40
2019-04-27T04:51:59.429Z,44.73
2019-04-27T04:54:26.680Z,39.23
2019-04-27T04:56:54.358Z,45.00
2019-04-27T04:59:22.088Z,43.43
2019-04-27T05:01:50.105Z,43.85
2019-04-27T05:04:19.326Z,45.87
2019-04-27T05:06:46.923Z,42.83
2019-04-27T05:09:14.470Z,44.13
2019-04-27T05:11:41.966Z,38.87
2019-04-27T05:14:09.827Z,40.10
2019-04-27T05:16:39.149Z,44.73
2019-04-27T05:19:06.703Z,41.83
2019-04-27T05:21:34.642Z,39.23
2019-04-27T05:24:03.594Z,37.17
2019-04-27T05:26:31.133Z,42.57
2019-04-27T05:28:59.873Z,38.47
2019-04-27T05:31:29.370Z,38.50
2019-04-27T05:33:59.223Z,37.63
2019-04-27T05:36:26.911Z,38.70
2019-04-27T05:38:54.465Z,40.00
2019-04-27T05:41:21.985Z,36.43
2019-04-27T05:44:11.130Z,39.60
2019-04-27T05:47:15.378Z,36.13
2019-04-27T05:49:45.581Z,36.53
2019-04-27T05:52:29.764Z,34.43
2019-04-27T05:54:58.979Z,40.40
2019-04-27T05:57:30.623Z,37.77
2019-04-27T05:59:58.898Z,35.80
2019-04-27T06:02:29.991Z,35.27
2019-04-27T06:04:57.261Z,30.77
2019-04-27T06:07:24.799Z,33.00
2019-04-27T06:09:53.598Z,28.53
2019-04-27T06:12:21.813Z,30.03
2019-04-27T06:14:49.404Z,27.53
2019-04-27T06:17:16.983Z,27.60
2019-04-27T06:19:45.610Z,27.43
2019-04-27T06:22:13.507Z,24.10
2019-04-27T06:24:41.238Z,26.13
2019-04-27T06:27:09.398Z,28.20
2019-04-27T06:29:39.336Z,26.20
2019-04-27T06:32:06.479Z,24.70
2019-04-27T06:34:34.030Z,25.03
2019-04-27T06:37:02.004Z,22.57
2019-04-27T06:39:29.937Z,22.00
2019-04-27T06:42:00.777Z,22.87
2019-04-27T06:44:27.144Z,21.50
2019-04-27T06:46:56.718Z,22.03
2019-04-27T06:49:24.303Z,20.33
2019-04-27T06:51:53.662Z,20.13
2019-04-27T06:54:23.192Z,20.73
2019-04-27T06:56:52.091Z,19.60
2019-04-27T06:59:20.860Z,18.97
2019-04-27T07:01:48.913Z,17.90
2019-04-27T07:04:16.704Z,18.17
2019-04-27T07:06:53.336Z,17.23
2019-04-27T07:09:14.280Z,16.17
2019-04-27T07:11:42.018Z,16.23
2019-04-27T07:14:11.556Z,15.67
2019-04-27T07:16:41.020Z,16.07
2019-04-27T07:19:09.410Z,15.03
2019-04-27T07:21:37.605Z,14.07
2019-04-27T07:24:05.014Z,14.17
2019-04-27T07:26:32.469Z,14.60
2019-04-27T07:29:01.673Z,13.77
2019-04-27T07:31:31.848Z,14.20
2019-04-27T07:33:59.675Z,14.33
2019-04-27T07:36:28.852Z,21.70
2019-04-27T07:38:59.830Z,14.00
2019-04-27T07:41:32.062Z,14.53
2019-04-27T07:44:47.645Z,13.67
2019-04-27T07:47:26.151Z,13.33
2019-04-27T07:49:53.766Z,11.90
2019-04-27T07:52:21.199Z,11.13
2019-04-27T07:54:49.178Z,12.10
2019-04-27T07:57:16.987Z,13.40
2019-04-27T07:59:44.635Z,12.73
2019-04-27T08:02:12.215Z,12.20
2019-04-27T08:04:40.096Z,12.10
2019-04-27T08:07:09.145Z,12.97
2019-04-27T08:09:36.830Z,12.10
2019-04-27T08:12:04.374Z,10.87
2019-04-27T08:14:31.996Z,12.50
2019-04-27T08:16:59.587Z,11.70
2019-04-27T08:19:27.197Z,11.87
2019-04-27T08:21:59.633Z,11.93
2019-04-27T08:24:26.986Z,12.20
2019-04-27T08:27:03.375Z,10.90
2019-04-27T08:29:50.354Z,10.37
2019-04-27T08:32:21.050Z,10.77
2019-04-27T08:34:49.649Z,10.43
2019-04-27T08:37:18.783Z,10.00
2019-04-27T08:39:46.431Z,10.73
2019-04-27T08:42:13.998Z,10.43
2019-04-27T08:44:41.542Z,10.17
2019-04-27T08:47:09.573Z,10.27
2019-04-27T08:49:39.271Z,9.77
2019-04-27T08:52:06.589Z,9.90
2019-04-27T08:54:34.013Z,10.13
2019-04-27T08:57:01.893Z,9.30
2019-04-27T08:59:29.709Z,9.80
2019-04-27T09:02:16.746Z,9.90
2019-04-27T09:04:44.359Z,10.50
2019-04-27T09:07:31.809Z,9.87
2019-04-27T09:10:05.068Z,10.23
2019-04-27T09:12:55.062Z,11.30
2019-04-27T09:15:44.961Z,24.80
2019-04-27T09:18:14.341Z,9.70
2019-04-27T09:20:45.385Z,11.70
2019-04-27T09:23:12.838Z,12.27
2019-04-27T09:25:40.461Z,11.07
2019-04-27T09:28:08.782Z,12.40
2019-04-27T09:30:36.472Z,12.17
2019-04-27T09:33:04.575Z,12.80
2019-04-27T09:35:32.308Z,12.20
2019-04-27T09:37:59.788Z,12.50
2019-04-27T09:40:27.474Z,12.23
2019-04-27T09:42:57.016Z,12.43
2019-04-27T09:45:24.238Z,13.43
2019-04-27T09:47:51.931Z,12.63
2019-04-27T09:50:20.644Z,13.50
2019-04-27T09:52:48.151Z,12.23
2019-04-27T09:55:16.343Z,13.60
2019-04-27T09:57:44.050Z,12.60
2019-04-27T10:00:12.830Z,13.57
2019-04-27T10:02:41.769Z,13.07
2019-04-27T10:05:09.643Z,12.70
2019-04-27T10:07:37.149Z,12.30
2019-04-27T10:10:06.436Z,12.57
2019-04-27T10:12:34.446Z,11.97
2019-04-27T10:15:06.025Z,12.80
2019-04-27T10:17:33.877Z,14.53
2019-04-27T10:20:03.328Z,13.93
2019-04-27T10:22:41.069Z,15.47
2019-04-27T10:25:02.223Z,15.73
2019-04-27T10:27:29.865Z,14.83
2019-04-27T10:29:58.505Z,14.67
2019-04-27T10:32:26.349Z,16.10
2019-04-27T10:34:54.103Z,16.07
2019-04-27T10:37:21.763Z,16.37
2019-04-27T10:39:50.162Z,16.87
2019-04-27T10:42:17.815Z,18.87
2019-04-27T10:44:46.217Z,16.67
2019-04-27T10:47:15.878Z,17.80
2019-04-27T10:49:43.418Z,17.97
2019-04-27T10:52:10.931Z,17.53
2019-04-27T10:54:38.519Z,17.90
2019-04-27T10:57:06.370Z,18.83
2019-04-27T10:59:35.977Z,17.13
2019-04-27T11:02:03.955Z,15.60
2019-04-27T11:04:50.012Z,13.00
2019-04-27T11:07:19.943Z,15.27
2019-04-27T11:09:47.482Z,15.00
2019-04-27T11:12:15.789Z,14.37
2019-04-27T11:14:43.590Z,12.33
2019-04-27T11:17:11.055Z,11.93
2019-04-27T11:19:38.664Z,10.00
2019-04-27T11:22:07.478Z,10.90
2019-04-27T11:24:35.176Z,9.13
2019-04-27T11:27:02.968Z,8.70
2019-04-27T11:29:30.489Z,9.63
2019-04-27T11:31:59.677Z,9.17
2019-04-27T11:34:50.069Z,8.97
2019-04-27T11:37:22.355Z,9.83
2019-04-27T11:39:49.990Z,8.90
2019-04-27T11:42:18.567Z,8.83
2019-04-27T11:44:47.073Z,9.17
2019-04-27T11:47:16.213Z,8.50
2019-04-27T11:49:45.620Z,8.70
2019-04-27T11:52:13.303Z,8.70
2019-04-27T11:54:41.221Z,8.93
2019-04-27T11:57:09.133Z,9.67
2019-04-27T11:59:36.881Z,9.27
2019-04-27T12:02:04.541Z,10.60
2019-04-27T12:04:32.664Z,9.63
2019-04-27T12:07:00.419Z,10.20
2019-04-27T12:09:27.972Z,13.10
2019-04-27T12:11:57.441Z,12.03
2019-04-27T12:14:24.824Z,11.07
2019-04-27T12:16:52.531Z,11.77
2019-04-27T12:19:20.075Z,11.33
2019-04-27T12:21:47.552Z,10.87
2019-04-27T12:24:16.145Z,12.60
2019-04-27T12:27:06.976Z,10.93
2019-04-27T12:29:52.674Z,11.70
2019-04-27T12:32:25.709Z,12.77
2019-04-27T12:34:53.384Z,10.70
2019-04-27T12:37:20.854Z,11.47
2019-04-27T12:39:48.491Z,10.20
2019-04-27T12:42:16.073Z,11.40
2019-04-27T12:44:43.931Z,9.40
2019-04-27T12:47:11.578Z,10.00
2019-04-27T12:49:39.737Z,10.17
2019-04-27T12:52:10.091Z,9.33
2019-04-27T12:54:47.289Z,9.93
2019-04-27T12:57:47.603Z,8.90
2019-04-27T13:00:24.336Z,9.00
2019-04-27T13:02:51.908Z,11.80
2019-04-27T13:05:19.616Z,10.40
2019-04-27T13:07:47.138Z,9.47
2019-04-27T13:10:15.922Z,11.30
2019-04-27T13:12:43.781Z,11.33
2019-04-27T13:15:12.101Z,11.10
2019-04-27T13:17:40.370Z,11.43
2019-04-27T13:20:08.265Z,11.57
2019-04-27T13:22:37.205Z,11.17
2019-04-27T13:25:05.791Z,11.70
2019-04-27T13:27:33.359Z,10.47
2019-04-27T13:30:04.737Z,11.10
2019-04-27T13:32:31.703Z,10.73
2019-04-27T13:34:59.363Z,11.67
2019-04-27T13:37:36.660Z,12.30
2019-04-27T13:40:09.417Z,13.97
2019-04-27T13:42:38.469Z,11.20
2019-04-27T13:45:12.462Z,11.40
2019-04-27T13:48:12.062Z,11.43
2019-04-27T13:50:43.131Z,12.07
2019-04-27T13:53:10.802Z,12.43
2019-04-27T13:55:38.259Z,12.10
2019-04-27T13:58:06.293Z,12.30
2019-04-27T14:00:34.824Z,13.57
2019-04-27T14:03:04.543Z,12.53
2019-04-27T14:05:32.469Z,12.20
2019-04-27T14:08:01.242Z,13.10
2019-04-27T14:10:28.752Z,2.97
2019-04-27T14:12:56.564Z,2.33
2019-04-27T14:15:25.932Z,4.00
2019-04-27T14:17:53.441Z,3.10
2019-04-27T14:20:21.108Z,2.30
2019-04-27T14:22:49.253Z,2.43
2019-04-27T14:25:18.137Z,4.73
2019-04-27T14:27:46.310Z,3.10
2019-04-27T14:30:15.895Z,4.00
2019-04-27T14:32:43.704Z,3.53
2019-04-27T14:35:11.517Z,5.47
2019-04-27T14:37:40.305Z,3.30
2019-04-27T14:40:08.564Z,2.63
2019-04-27T14:42:37.321Z,4.70
2019-04-27T14:45:08.854Z,4.03
2019-04-27T14:47:38.247Z,2.90
2019-04-27T14:50:06.400Z,5.70
2019-04-27T14:52:34.277Z,7.37
2019-04-27T14:55:05.369Z,4.73
2019-04-27T14:57:32.973Z,5.47
2019-04-27T15:00:01.138Z,4.63
2019-04-27T15:02:28.847Z,4.47
2019-04-27T15:04:56.589Z,8.73
2019-04-27T15:07:25.129Z,5.27
2019-04-27T15:09:56.160Z,2.70
2019-04-27T15:12:24.499Z,3.50
2019-04-27T15:14:53.290Z,5.97
2019-04-27T15:17:26.627Z,6.10
2019-04-27T15:19:58.496Z,5.40
2019-04-27T15:22:30.105Z,7.17
2019-04-27T15:25:09.071Z,5.50
2019-04-27T15:27:37.766Z,3.87
2019-04-27T15:30:11.105Z,6.27
2019-04-27T15:33:10.502Z,6.13
2019-04-27T15:35:44.027Z,7.03
2019-04-27T15:38:15.727Z,7.23
2019-04-27T15:41:02.751Z,8.43
2019-04-27T15:43:33.143Z,5.43
2019-04-27T15:46:04.216Z,4.90
2019-04-27T15:48:34.022Z,6.90
2019-04-27T15:51:05.175Z,4.87
2019-04-27T15:53:30.806Z,7.70
2019-04-27T15:56:01.751Z,5.93
2019-04-27T15:58:28.898Z,6.13
2019-04-27T16:01:00.151Z,4.87
2019-04-27T16:03:27.219Z,5.20
2019-04-27T16:06:08.085Z,5.30
2019-04-27T16:08:38.212Z,3.83
2019-04-27T16:11:05.335Z,3.90
2019-04-27T16:13:34.036Z,3.87
2019-04-27T16:16:01.990Z,3.90
2019-04-27T16:18:32.576Z,3.70
2019-04-27T16:21:02.736Z,5.33
2019-04-27T16:23:28.589Z,5.93
2019-04-27T16:25:58.192Z,4.27
2019-04-27T16:28:28.271Z,5.63
2019-04-27T16:30:58.072Z,5.53
2019-04-27T16:33:25.586Z,5.00
2019-04-27T16:35:57.119Z,6.23
2019-04-27T16:38:34.812Z,8.70
2019-04-27T16:41:03.490Z,6.53
2019-04-27T16:43:33.136Z,5.50
2019-04-27T16:46:04.256Z,6.63
2019-04-27T16:48:34.715Z,5.77
2019-04-27T16:51:01.275Z,7.53
2019-04-27T16:53:30.165Z,7.00
2019-04-27T16:56:14.536Z,8.23
2019-04-27T16:58:39.386Z,4.93
2019-04-27T17:01:30.393Z,5.13
2019-04-27T17:04:01.836Z,4.40
2019-04-27T17:06:30.234Z,4.23
2019-04-27T17:09:05.607Z,3.30
2019-04-27T17:11:29.804Z,3.43
2019-04-27T17:14:16.538Z,3.20
2019-04-27T17:17:19.626Z,5.33
2019-04-27T17:19:53.211Z,4.93
2019-04-27T17:22:23.611Z,4.60
2019-04-27T17:24:51.207Z,4.53
2019-04-27T17:27:28.862Z,4.90
2019-04-27T17:29:58.104Z,4.10
2019-04-27T17:32:33.807Z,3.83
2019-04-27T17:35:05.632Z,6.13
2019-04-27T17:37:33.846Z,4.30
2019-04-27T17:40:15.313Z,6.27
2019-04-27T17:42:43.219Z,5.90
2019-04-27T17:45:15.106Z,9.00
2019-04-27T17:47:43.040Z,4.90
2019-04-27T17:50:10.510Z,6.90
2019-04-27T17:52:55.043Z,4.93
2019-04-27T17:55:24.098Z,6.07
2019-04-27T17:57:49.211Z,6.03
2019-04-27T18:00:18.778Z,8.60
2019-04-27T18:02:46.701Z,7.10
2019-04-27T18:05:15.108Z,6.43
2019-04-27T18:07:44.144Z,5.60
2019-04-27T18:10:12.893Z,6.60
2019-04-27T18:12:44.589Z,5.57
2019-04-27T18:15:14.539Z,6.23
2019-04-27T18:17:48.366Z,6.33
2019-04-27T18:20:13.822Z,8.10
2019-04-27T18:22:45.659Z,5.90
2019-04-27T18:25:13.312Z,5.70
2019-04-27T18:28:07.929Z,5.90
2019-04-27T18:30:49.140Z,5.47
2019-04-27T18:33:18.468Z,5.93
2019-04-27T18:35:45.926Z,6.10
2019-04-27T18:38:13.447Z,6.20
2019-04-27T18:40:40.986Z,8.87
2019-04-27T18:43:12.314Z,6.00
2019-04-27T18:45:44.771Z,6.97
2019-04-27T18:48:13.858Z,3.90
2019-04-27T18:51:01.737Z,6.93
2019-04-27T18:53:29.942Z,4.10
2019-04-27T18:56:04.361Z,5.03
2019-04-27T18:58:26.886Z,3.47
2019-04-27T19:00:55.381Z,2.63
2019-04-27T19:03:22.861Z,3.20
2019-04-27T19:05:50.332Z,4.37
2019-04-27T19:08:19.998Z,3.93
2019-04-27T19:10:47.461Z,5.00
2019-04-27T19:13:14.941Z,4.77
2019-04-27T19:15:42.517Z,3.77
2019-04-27T19:18:10.211Z,4.10
2019-04-27T19:20:39.047Z,7.63
2019-04-27T19:23:08.661Z,6.10
2019-04-27T19:26:01.721Z,3.90
2019-04-27T19:28:43.156Z,3.40
2019-04-27T19:31:15.831Z,3.80
2019-04-27T19:33:43.789Z,6.00
2019-04-27T19:36:11.371Z,5.23
2019-04-27T19:38:39.227Z,5.03
2019-04-27T19:41:07.841Z,4.43
2019-04-27T19:43:36.209Z,5.97
2019-04-27T19:46:03.729Z,4.50
2019-04-27T19:48:31.238Z,6.03
2019-04-27T19:51:00.189Z,4.80
2019-04-27T19:53:27.852Z,5.87
2019-04-27T19:56:02.666Z,6.50
2019-04-27T19:58:34.553Z,5.50
2019-04-27T20:01:11.917Z,6.73
2019-04-27T20:03:43.785Z,5.83
2019-04-27T20:06:12.676Z,5.23
2019-04-27T20:08:42.727Z,6.90
2019-04-27T20:11:10.419Z,6.00
2019-04-27T20:13:38.010Z,6.00
2019-04-27T20:16:05.650Z,8.70
2019-04-27T20:18:33.197Z,6.07
2019-04-27T20:21:03.232Z,10.00
2019-04-27T20:23:31.952Z,8.23
2019-04-27T20:26:01.777Z,7.70
2019-04-27T20:28:31.415Z,5.53
2019-04-27T20:30:58.933Z,7.00
2019-04-27T20:33:26.363Z,9.67
2019-04-27T20:35:53.947Z,7.30
2019-04-27T20:38:21.534Z,6.10
2019-04-27T20:40:49.035Z,8.00
2019-04-27T20:43:16.631Z,6.20
2019-04-27T20:45:44.799Z,10.10
2019-04-27T20:48:12.441Z,7.53
2019-04-27T20:50:41.186Z,6.60
2019-04-27T20:53:12.697Z,6.03
2019-04-27T20:55:40.423Z,8.87
2019-04-27T20:58:08.133Z,9.00
2019-04-27T21:00:35.746Z,7.10
2019-04-27T21:03:27.938Z,8.63
2019-04-27T21:06:07.126Z,7.10
2019-04-27T21:08:36.054Z,10.13
2019-04-27T21:11:04.854Z,14.37
2019-04-27T21:13:32.394Z,16.00
2019-04-27T21:16:02.312Z,9.00
2019-04-27T21:18:29.266Z,8.30
2019-04-27T21:20:56.807Z,10.80
2019-04-27T21:23:24.745Z,6.77
2019-04-27T21:25:53.621Z,11.23
2019-04-27T21:28:21.614Z,7.83
2019-04-27T21:30:49.557Z,10.27
2019-04-27T21:33:18.235Z,7.80
2019-04-27T21:35:48.133Z,7.80
2019-04-27T21:38:15.786Z,8.07
2019-04-27T21:40:43.142Z,7.40
2019-04-27T21:43:11.332Z,9.33
2019-04-27T21:45:38.907Z,9.20
2019-04-27T21:48:06.830Z,16.93
2019-04-27T21:50:34.488Z,12.00
2019-04-27T21:53:21.165Z,9.03
2019-04-27T21:56:01.295Z,8.63
2019-04-27T21:58:29.173Z,9.70
2019-04-27T22:01:05.379Z,8.57
2019-04-27T22:03:34.821Z,9.40
2019-04-27T22:06:03.984Z,12.87
2019-04-27T22:08:31.905Z,10.90
2019-04-27T22:11:01.385Z,9.47
2019-04-27T22:13:31.146Z,12.63
2019-04-27T22:15:58.799Z,11.53
2019-04-27T22:18:26.278Z,9.27
2019-04-27T22:20:54.014Z,9.13
2019-04-27T22:23:46.546Z,11.30
2019-04-27T22:26:14.016Z,9.00
2019-04-27T22:28:47.058Z,10.30
2019-04-27T22:31:12.539Z,12.87
2019-04-27T22:33:42.715Z,8.50
2019-04-27T22:36:10.992Z,10.47
2019-04-27T22:38:38.542Z,9.90
2019-04-27T22:41:31.494Z,8.73
2019-04-27T22:44:17.160Z,10.13
2019-04-27T22:46:45.950Z,9.20
2019-04-27T22:49:13.363Z,8.07
2019-04-27T22:51:41.214Z,12.20
2019-04-27T22:54:11.615Z,11.13
2019-04-27T22:56:42.185Z,10.97
2019-04-27T22:59:18.737Z,10.90
2019-04-27T23:02:11.853Z,11.10
2019-04-27T23:04:43.674Z,13.70
2019-04-27T23:07:11.193Z,8.00
2019-04-27T23:09:38.745Z,9.90
2019-04-27T23:12:06.761Z,12.20
2019-04-27T23:14:34.505Z,13.00
2019-04-27T23:17:13.297Z,12.23
2019-04-27T23:19:42.685Z,12.00
2019-04-27T23:22:11.085Z,12.30
2019-04-27T23:24:38.541Z,9.90
2019-04-27T23:27:06.038Z,11.70
2019-04-27T23:29:33.686Z,11.37
2019-04-27T23:32:11.572Z,12.47
2019-04-27T23:34:39.006Z,9.90
2019-04-27T23:37:06.503Z,9.70
2019-04-27T23:39:34.045Z,11.47
2019-04-27T23:42:06.646Z,12.20
2019-04-27T23:44:31.778Z,10.10
2019-04-27T23:47:00.889Z,10.87
2019-04-27T23:49:28.411Z,10.70
2019-04-27T23:52:01.598Z,10.27
2019-04-27T23:54:29.068Z,14.03
2019-04-27T23:56:56.591Z,10.30
2019-04-27T23:59:25.268Z,14.40
